Time;durP1;ratioP1;P1;durP2;ratioP2;P2;SDS_P1;SDS_P2;PMS_P1;PMS_P2;Temp;Humidity;BMP_temperature;BMP_pressure;BME280_temperature;BME280_humidity;BME280_pressure;Samples;Min_cycle;Max_cycle;Signal;HPM_P1;HPM_P2
2021/01/05 00:01:46;;;;;;;26.02;16.88;;;4.10;89.90;;;4.53;73.07;100494.88;4994466;28;20506;-85
2021/01/05 00:04:13;;;;;;;24.45;15.63;;;4.30;90.10;;;4.57;73.04;100484.66;4994451;28;20051;-86
2021/01/05 00:06:40;;;;;;;25.00;16.15;;;4.20;89.60;;;4.57;72.70;100490.91;4993869;28;20125;-84
2021/01/05 00:09:07;;;;;;;23.08;14.77;;;4.20;89.60;;;4.54;72.83;100496.59;4994506;28;20050;-84
2021/01/05 00:11:34;;;;;;;25.52;16.17;;;4.10;89.40;;;4.54;72.57;100495.75;4977071;28;20411;-84
2021/01/05 00:14:00;;;;;;;23.25;15.45;;;4.10;89.60;;;4.53;72.50;100497.56;4994455;28;20120;-84
2021/01/05 00:16:29;;;;;;;24.75;15.05;;;4.10;89.60;;;4.49;73.32;100498.88;4994503;28;20100;-84
2021/01/05 00:18:56;;;;;;;26.50;15.90;;;4.10;90.00;;;4.48;73.27;100491.78;4994386;28;20078;-84
2021/01/05 00:21:25;;;;;;;25.85;15.50;;;4.20;89.70;;;4.53;72.97;100494.03;4994080;28;20125;-84
2021/01/05 00:23:52;;;;;;;25.90;15.40;;;4.30;89.50;;;4.56;72.75;100499.97;4992407;28;20061;-84
2021/01/05 00:26:19;;;;;;;26.92;16.50;;;4.20;89.20;;;4.57;72.58;100492.75;4976535;28;20050;-84
2021/01/05 00:28:46;;;;;;;25.95;16.15;;;4.20;89.10;;;4.60;72.22;100501.38;4994202;28;20073;-84
2021/01/05 00:31:13;;;;;;;24.08;15.27;;;4.20;89.10;;;4.58;72.57;100503.38;4994770;28;20129;-84
2021/01/05 00:33:39;;;;;;;25.40;15.77;;;4.30;89.00;;;4.59;72.44;100494.31;4994764;28;20065;-84
2021/01/05 00:36:07;;;;;;;24.88;15.00;;;4.20;89.10;;;4.60;72.59;100496.00;4994075;28;20042;-84
2021/01/05 00:38:34;;;;;;;27.83;15.00;;;4.20;89.30;;;4.62;72.09;100494.00;4994098;28;20502;-84
2021/01/05 00:41:01;;;;;;;27.92;15.85;;;4.30;89.00;;;4.63;72.29;100490.31;4981807;28;20039;-84
2021/01/05 00:43:28;;;;;;;24.52;15.30;;;4.30;89.00;;;4.61;72.31;100491.47;4975204;28;20046;-84
2021/01/05 00:45:54;;;;;;;24.40;14.60;;;4.30;88.90;;;4.63;72.06;100497.56;4957417;28;20093;-84
2021/01/05 00:48:21;;;;;;;23.55;15.20;;;4.30;88.70;;;4.62;71.95;100490.47;4974749;28;20066;-84
2021/01/05 00:50:48;;;;;;;25.67;15.60;;;4.40;88.80;;;4.63;71.67;100490.31;4957507;28;20047;-84
2021/01/05 00:53:15;;;;;;;24.48;15.07;;;4.30;88.60;;;4.60;71.96;100500.53;4974487;28;20133;-85
2021/01/05 00:55:43;;;;;;;24.08;15.10;;;4.20;88.50;;;4.59;71.73;100496.13;4973591;28;20078;-84
2021/01/05 00:58:09;;;;;;;24.00;14.68;;;4.20;88.60;;;4.59;72.03;100498.84;4965900;28;20046;-84
2021/01/05 01:00:36;;;;;;;24.38;15.00;;;4.20;88.80;;;4.57;72.13;100496.31;4994454;28;20043;-84
2021/01/05 01:03:11;;;;;;;24.38;14.48;;;4.20;89.00;;;4.57;72.03;100501.69;4976555;28;20074;-84
2021/01/05 01:05:39;;;;;;;22.08;14.68;;;4.20;88.80;;;4.59;72.07;100490.75;4976573;28;20389;-84
2021/01/05 01:08:09;;;;;;;21.88;14.10;;;4.20;88.60;;;4.57;72.12;100490.91;4976203;28;20159;-84
2021/01/05 01:10:38;;;;;;;24.83;15.02;;;4.30;89.10;;;4.59;72.00;100494.31;4976724;28;20494;-84
2021/01/05 01:13:09;;;;;;;22.83;14.45;;;4.30;88.80;;;4.59;72.28;100499.72;4977177;28;20685;-84
2021/01/05 01:15:38;;;;;;;25.42;15.48;;;4.20;88.60;;;4.59;72.13;100496.13;4976305;28;20141;-84
2021/01/05 01:18:07;;;;;;;24.20;15.27;;;4.20;88.90;;;4.48;72.50;100497.19;4976430;28;20054;-84
2021/01/05 01:20:38;;;;;;;25.63;15.38;;;4.30;88.90;;;4.54;72.31;100496.59;4976208;28;20047;-84
2021/01/05 01:23:05;;;;;;;24.05;15.40;;;4.30;88.70;;;4.59;72.20;100505.09;4976540;28;20062;-84
2021/01/05 01:25:34;;;;;;;26.52;15.48;;;4.30;88.70;;;4.58;72.44;100498.00;4975962;28;20061;-84
2021/01/05 01:28:02;;;;;;;24.25;14.45;;;4.30;88.50;;;4.60;71.88;100501.38;4976146;28;20058;-84
2021/01/05 01:30:36;;;;;;;24.98;15.32;;;4.20;88.40;;;4.59;71.85;100494.31;4976102;28;20046;-84
2021/01/05 01:33:09;;;;;;;28.08;16.30;;;4.30;88.90;;;4.57;71.85;100490.91;4965430;28;20515;-84
2021/01/05 01:35:38;;;;;;;25.48;15.15;;;4.20;88.50;;;4.59;71.96;100497.00;4956113;28;20120;-84
2021/01/05 01:38:05;;;;;;;23.15;14.65;;;4.20;88.80;;;4.62;71.86;100499.38;4956778;28;20055;-84
2021/01/05 01:40:42;;;;;;;24.08;14.23;;;4.30;88.60;;;4.62;71.72;100499.38;4957373;28;20049;-84
2021/01/05 01:43:26;;;;;;;20.98;13.20;;;4.20;88.30;;;4.58;72.16;100503.38;4957043;28;20055;-84
2021/01/05 01:45:56;;;;;;;23.35;14.52;;;4.20;88.70;;;4.51;72.36;100502.25;4956931;28;20050;-84
2021/01/05 01:48:30;;;;;;;22.15;14.05;;;4.20;88.90;;;4.52;71.95;100501.28;4959025;28;20048;-84
2021/01/05 01:51:00;;;;;;;22.73;14.40;;;4.20;88.50;;;4.51;72.37;100499.56;4961346;28;20423;-84
2021/01/05 01:54:15;;;;;;;23.23;14.30;;;4.20;88.60;;;4.53;71.88;100494.88;4959887;28;20057;-84
2021/01/05 01:57:31;;;;;;;23.02;14.88;;;4.20;88.40;;;4.54;71.99;100496.59;4948089;28;20597;-84
2021/01/05 02:00:20;;;;;;;23.83;13.40;;;4.20;88.40;;;4.57;71.79;100496.31;4901320;29;20501;-84
2021/01/05 02:03:37;;;;;;;21.17;13.32;;;4.20;88.60;;;4.59;71.71;100499.72;4976263;28;20046;-85
2021/01/05 02:06:44;;;;;;;21.92;14.10;;;4.20;88.20;;;4.59;71.86;100499.72;4979310;28;20054;-84
2021/01/05 02:09:27;;;;;;;;;;;4.20;88.50;;;4.59;71.72;100498.84;4962057;28;20055;-84
2021/01/05 02:12:04;;;;;;;25.67;14.38;;;4.20;88.40;;;4.48;71.91;100499.88;4959641;28;19922;-84
2021/01/05 02:14:52;;;;;;;22.50;14.10;;;4.20;88.60;;;4.45;72.03;100494.75;4959249;28;20062;-84
2021/01/05 02:18:25;;;;;;;22.35;14.10;;;4.20;88.50;;;4.47;72.65;100496.34;4976947;28;20035;-84
2021/01/05 02:20:57;;;;;;;23.73;13.80;;;4.30;88.60;;;4.51;71.93;100502.25;4956597;28;20051;-85
2021/01/05 02:23:44;;;;;;;22.27;13.77;;;4.20;88.10;;;4.52;72.35;100490.50;4959933;28;20054;-84
2021/01/05 02:26:21;;;;;;;23.95;14.35;;;4.20;88.70;;;4.49;72.47;100498.88;4977168;28;20675;-84
2021/01/05 02:28:57;;;;;;;24.70;14.52;;;4.20;88.80;;;4.53;72.16;100494.88;4959552;28;20423;-84
2021/01/05 02:31:41;;;;;;;24.98;14.38;;;4.30;88.50;;;4.53;72.10;100494.03;4972377;28;20133;-84
2021/01/05 02:34:24;;;;;;;23.05;14.27;;;4.20;88.40;;;4.50;72.12;100495.19;4978960;28;20053;-84
2021/01/05 02:37:31;;;;;;;25.98;15.25;;;4.30;88.60;;;4.51;72.20;100491.47;4976700;28;20414;-84
2021/01/05 02:40:39;;;;;;;23.83;15.05;;;4.30;88.30;;;4.48;72.34;100499.88;4966711;28;20491;-84
2021/01/05 02:44:01;;;;;;;30.08;15.98;;;4.40;88.40;;;4.49;72.64;100488.09;4977274;28;20058;-84
2021/01/05 02:46:54;;;;;;;26.23;15.65;;;4.30;88.60;;;4.54;71.86;100491.19;4976895;28;20078;-85
2021/01/05 02:49:47;;;;;;;26.65;16.13;;;4.30;87.90;;;4.55;71.96;100492.03;4976445;28;20105;-84
2021/01/05 02:53:31;;;;;;;26.65;15.80;;;4.40;88.30;;;4.53;72.32;100484.09;4982339;28;20085;-84
2021/01/05 02:57:06;;;;;;;27.35;15.30;;;4.30;88.10;;;4.57;71.68;100490.03;4995922;28;20054;-84
2021/01/05 03:00:31;;;;;;;28.88;16.48;;;4.30;88.10;;;4.56;72.22;100488.38;4994388;28;20096;-84
2021/01/05 03:03:39;;;;;;;26.48;15.75;;;4.30;88.70;;;4.56;71.92;100489.19;4976766;28;20069;-85
2021/01/05 03:06:38;;;;;;;30.95;17.45;;;4.30;88.50;;;4.53;72.09;100492.19;4989887;28;20061;-85
2021/01/05 03:10:10;;;;;;;30.58;17.30;;;4.30;88.40;;;4.56;72.36;100483.81;4995932;28;20185;-84
2021/01/05 03:13:49;;;;;;;30.27;16.90;;;4.30;88.40;;;4.56;72.12;100491.91;4976587;28;20057;-84
2021/01/05 03:16:39;;;;;;;32.33;17.38;;;4.30;88.70;;;4.58;72.20;100480.97;4990920;28;20057;-84
2021/01/05 03:19:36;;;;;;;30.60;17.55;;;4.30;88.70;;;4.55;72.21;100490.22;4995701;28;20072;-84
2021/01/05 03:22:25;;;;;;;29.70;17.17;;;4.30;88.70;;;4.57;72.34;100487.34;4995797;28;20093;-84
2021/01/05 03:25:11;;;;;;;26.95;16.50;;;4.30;88.70;;;4.56;72.37;100491.06;4995189;28;20560;-84
2021/01/05 03:28:00;;;;;;;31.02;17.52;;;4.30;88.40;;;4.56;72.34;100478.41;4975971;28;20093;-84
2021/01/05 03:30:49;;;;;;;30.30;16.73;;;4.30;88.40;;;4.54;72.03;100480.41;4984563;28;20065;-85
2021/01/05 03:33:35;;;;;;;30.23;17.52;;;4.30;88.20;;;4.57;72.12;100474.75;4995614;28;20137;-84
2021/01/05 03:36:21;;;;;;;30.38;16.77;;;4.30;88.40;;;4.60;72.00;100479.81;4994821;28;20057;-84
2021/01/05 03:39:08;;;;;;;30.98;16.58;;;4.30;88.40;;;4.60;72.11;100482.53;4995237;28;20808;-84
2021/01/05 03:41:53;;;;;;;27.95;16.10;;;4.30;88.60;;;4.57;72.22;100482.84;4977795;28;20113;-84
2021/01/05 03:44:38;;;;;;;31.52;16.65;;;4.30;88.50;;;4.52;72.12;100489.66;4976282;28;20054;-84
2021/01/05 03:47:24;;;;;;;27.02;16.30;;;4.40;88.10;;;4.55;71.87;100483.94;4975810;28;20065;-84
2021/01/05 03:50:11;;;;;;;28.98;17.10;;;4.30;88.20;;;4.54;71.67;100484.97;4979788;28;20139;-84
2021/01/05 03:52:57;;;;;;;30.30;17.65;;;4.20;88.10;;;4.54;71.78;100479.56;4994942;28;20157;-84
2021/01/05 03:55:42;;;;;;;30.13;17.75;;;4.20;88.40;;;4.57;72.02;100484.66;4992454;28;20480;-84
2021/01/05 03:58:27;;;;;;;30.38;17.02;;;4.30;88.40;;;4.55;72.01;100481.25;4994929;28;20585;-84
2021/01/05 04:01:13;;;;;;;28.58;16.13;;;4.20;88.50;;;4.56;72.10;100477.59;4983331;28;20089;-84
2021/01/05 04:03:40;;;;;;;30.40;17.15;;;4.20;88.40;;;4.57;71.51;100480.13;4990808;28;20094;-84
2021/01/05 04:06:08;;;;;;;30.77;16.83;;;4.30;88.70;;;4.52;71.90;100485.09;4982875;28;20081;-84
2021/01/05 04:08:36;;;;;;;28.00;15.85;;;4.20;88.70;;;4.55;72.21;100497.44;4975152;28;20097;-84
2021/01/05 04:11:04;;;;;;;29.27;16.13;;;4.20;88.70;;;4.53;72.05;100484.09;4975343;28;20053;-84
2021/01/05 04:13:31;;;;;;;29.45;16.48;;;4.20;88.50;;;4.53;71.99;100484.09;4975166;28;20093;-84
2021/01/05 04:15:57;;;;;;;27.80;15.43;;;4.30;88.40;;;4.51;71.99;100486.09;4984869;28;20073;-84
2021/01/05 04:18:24;;;;;;;26.80;15.18;;;4.20;88.10;;;4.51;71.86;100488.78;4994729;28;20412;-84
2021/01/05 04:20:51;;;;;;;27.08;15.30;;;4.20;87.90;;;4.50;71.99;100495.19;4993133;28;20038;-85
2021/01/05 04:23:19;;;;;;;27.27;15.55;;;4.20;88.10;;;4.55;72.06;100482.13;4994451;28;20489;-84
2021/01/05 04:25:46;;;;;;;25.80;15.32;;;4.20;88.10;;;4.50;71.72;100490.63;4993350;28;20112;-84
2021/01/05 04:28:12;;;;;;;26.52;15.07;;;4.20;88.20;;;4.51;71.79;100480.69;4994796;28;20050;-84
2021/01/05 04:30:39;;;;;;;26.65;15.32;;;4.30;88.00;;;4.55;71.77;100481.25;4986143;28;20038;-84
2021/01/05 04:33:10;;;;;;;26.63;15.55;;;4.20;88.30;;;4.55;71.83;100486.66;4974814;28;20051;-84
2021/01/05 04:35:38;;;;;;;27.30;15.77;;;4.20;88.30;;;4.54;72.20;100479.56;4957983;28;20089;-84
2021/01/05 04:38:05;;;;;;;27.65;15.93;;;4.20;88.30;;;4.54;72.01;100484.97;4974284;28;20173;-84
2021/01/05 04:40:36;;;;;;;30.45;16.23;;;4.40;88.40;;;4.52;71.89;100493.19;4980544;28;20042;-84
2021/01/05 04:43:19;;;;;;;27.98;16.05;;;4.20;88.40;;;4.49;71.99;100493.47;4994300;28;20254;-84
2021/01/05 04:46:05;;;;;;;27.50;16.50;;;4.20;88.60;;;4.47;72.06;100490.94;4985274;28;20043;-84
2021/01/05 04:48:41;;;;;;;25.27;14.70;;;4.30;88.60;;;4.48;72.52;100491.78;4974832;28;20081;-84
2021/01/05 04:51:20;;;;;;;26.63;15.63;;;4.20;88.60;;;4.46;72.32;100489.22;4974763;28;20049;-84
2021/01/05 04:53:52;;;;;;;26.60;15.48;;;4.30;88.70;;;4.50;72.03;100495.19;4974360;28;20070;-84
2021/01/05 04:56:28;;;;;;;26.05;15.23;;;4.20;88.40;;;4.53;72.34;100492.19;4975667;28;20059;-84
2021/01/05 04:58:59;;;;;;;30.40;15.55;;;4.30;88.80;;;4.55;72.40;100495.59;4974307;28;20094;-84
2021/01/05 05:01:30;;;;;;;29.55;15.85;;;4.30;88.70;;;4.60;72.28;100495.16;4971445;28;20077;-84
2021/01/05 05:04:10;;;;;;;28.23;16.17;;;4.30;88.60;;;4.57;72.02;100500.81;4994506;28;20046;-84
2021/01/05 05:06:44;;;;;;;30.35;16.80;;;4.30;88.40;;;4.54;72.31;100491.19;4979659;28;20075;-84
2021/01/05 05:09:26;;;;;;;30.52;16.02;;;4.30;88.60;;;4.57;72.25;100490.03;4974665;28;20050;-84
2021/01/05 05:12:23;;;;;;;30.13;15.10;;;4.20;88.60;;;4.54;72.25;100491.19;4990568;28;20142;-84
2021/01/05 05:15:11;;;;;;;27.40;15.68;;;4.30;88.70;;;4.56;71.82;100489.19;4994037;28;20484;-84
2021/01/05 05:18:08;;;;;;;27.02;15.05;;;4.30;88.40;;;4.52;72.33;100497.75;4974222;28;20073;-84
2021/01/05 05:20:58;;;;;;;27.77;15.40;;;4.30;88.80;;;4.52;72.26;100500.44;4982156;28;20418;-84
2021/01/05 05:23:48;;;;;;;27.35;14.63;;;4.30;88.60;;;4.50;72.67;100493.34;4996519;28;20070;-84
2021/01/05 05:26:22;;;;;;;24.77;14.57;;;4.30;88.70;;;4.55;72.39;100502.81;4997088;28;20053;-84
2021/01/05 05:28:57;;;;;;;26.52;14.90;;;4.30;88.50;;;4.53;72.55;100508.34;4997672;28;20082;-84
2021/01/05 05:31:28;;;;;;;25.52;14.80;;;4.30;88.70;;;4.57;72.32;100504.41;4966429;28;20078;-85
2021/01/05 05:34:00;;;;;;;30.33;15.32;;;4.30;88.60;;;4.57;72.35;100501.69;4978337;28;20050;-89
2021/01/05 05:36:56;;;;;;;23.48;13.60;;;4.40;88.20;;;4.59;71.99;100512.31;4976642;28;20062;-84
2021/01/05 05:39:44;;;;;;;28.52;13.85;;;4.40;88.50;;;4.54;72.31;100512.75;4978186;28;20825;-83
2021/01/05 05:42:35;;;;;;;24.38;13.70;;;4.40;88.50;;;4.58;72.48;100513.31;4977886;28;20081;-84
2021/01/05 05:45:08;;;;;;;27.73;14.90;;;4.50;88.40;;;4.60;72.32;100509.47;4978549;28;20132;-82
2021/01/05 05:47:40;;;;;;;25.98;14.07;;;4.40;88.20;;;4.64;72.00;100513.56;4977211;28;20129;-83
2021/01/05 05:50:14;;;;;;;28.45;15.13;;;4.40;88.00;;;4.63;71.59;100508.34;4980070;28;20130;-84
2021/01/05 05:52:49;;;;;;;26.70;14.23;;;4.30;88.30;;;4.64;71.68;100512.72;4996941;28;20042;-83
2021/01/05 05:55:40;;;;;;;25.38;14.80;;;4.30;88.50;;;4.58;72.34;100508.78;4995505;28;20073;-83
2021/01/05 05:58:07;;;;;;;27.30;14.30;;;4.30;88.50;;;4.61;71.94;100511.19;4996983;28;20074;-83
2021/01/05 06:00:39;;;;;;;29.60;15.95;;;4.30;88.00;;;4.62;72.13;100520.13;4990529;28;20503;-83
2021/01/05 06:03:07;;;;;;;;;;;4.30;88.40;;;4.63;71.91;100521.81;4980272;28;20062;-84
2021/01/05 06:05:36;;;;;;;28.55;15.00;;;4.30;88.30;;;4.64;71.99;100513.56;4983413;28;20855;-83
2021/01/05 06:08:05;;;;;;;27.70;14.68;;;4.30;88.50;;;4.59;72.50;100518.56;4997815;28;20066;-83
2021/01/05 06:10:32;;;;;;;28.88;14.65;;;4.30;88.70;;;4.57;72.33;100517.88;4991512;28;20454;-84
2021/01/05 06:12:59;;;;;;;28.25;15.27;;;4.30;88.90;;;4.56;72.82;100524.25;4977355;28;20046;-84
2021/01/05 06:15:25;;;;;;;29.42;16.13;;;4.40;88.80;;;4.58;72.18;100521.41;4982920;28;20082;-82
2021/01/05 06:17:53;;;;;;;31.52;16.63;;;4.40;88.40;;;4.53;72.49;100521.81;4997088;28;20076;-83
2021/01/05 06:20:20;;;;;;;28.27;15.95;;;4.40;88.60;;;4.58;72.58;100519.56;4992762;28;20097;-83
2021/01/05 06:22:47;;;;;;;30.30;15.82;;;4.50;88.60;;;4.62;72.43;100520.13;4977772;28;20105;-83
2021/01/05 06:25:15;;;;;;;30.95;16.20;;;4.50;88.20;;;4.61;72.21;100516.56;4979460;28;20077;-83
2021/01/05 06:27:42;;;;;;;29.33;16.00;;;4.40;88.20;;;4.66;72.53;100524.22;4996374;28;20117;-83
2021/01/05 06:30:10;;;;;;;30.08;14.93;;;4.40;88.60;;;4.67;72.22;100520.53;4993984;28;20054;-83
2021/01/05 06:32:37;;;;;;;27.25;15.30;;;4.40;88.50;;;4.66;72.25;100526.91;4977395;28;20063;-83
2021/01/05 06:35:07;;;;;;;28.55;14.98;;;4.40;88.60;;;4.65;72.33;100530.63;4978066;28;20819;-83
2021/01/05 06:37:34;;;;;;;28.35;14.95;;;4.40;88.60;;;4.67;72.43;100529.47;4996291;28;20822;-83
2021/01/05 06:40:01;;;;;;;27.75;15.50;;;4.40;88.40;;;4.71;72.00;100532.72;4994824;28;20108;-83
2021/01/05 06:42:27;;;;;;;30.58;16.27;;;4.40;88.60;;;4.71;72.00;100535.41;4996288;28;20049;-83
2021/01/05 06:44:54;;;;;;;26.80;15.13;;;4.50;88.70;;;4.71;72.34;100524.63;4996212;28;20133;-82
2021/01/05 06:47:21;;;;;;;30.27;16.38;;;4.50;88.70;;;4.68;72.19;100533.88;4977133;28;20162;-82
2021/01/05 06:49:47;;;;;;;28.92;15.65;;;4.50;88.60;;;4.73;72.20;100543.38;4978585;28;20451;-83
2021/01/05 06:52:15;;;;;;;31.50;15.98;;;4.50;88.40;;;4.73;72.21;100535.28;4997351;28;20066;-83
2021/01/05 06:54:42;;;;;;;30.58;15.45;;;4.50;88.70;;;4.69;72.25;100537.41;4997229;28;20074;-83
2021/01/05 06:57:09;;;;;;;32.25;16.98;;;4.50;88.70;;;4.67;72.84;100534.84;4995137;28;20078;-83
2021/01/05 06:59:36;;;;;;;32.33;17.23;;;4.50;88.60;;;4.71;72.69;100538.13;4992048;28;20137;-83
2021/01/05 07:02:07;;;;;;;30.17;15.57;;;4.50;88.50;;;4.69;72.22;100532.84;4996219;28;20048;-84
2021/01/05 07:04:34;;;;;;;31.40;16.00;;;4.50;88.20;;;4.73;72.26;100532.59;4997180;28;20046;-84
2021/01/05 07:07:03;;;;;;;27.42;14.50;;;4.40;88.30;;;4.69;72.26;100540.94;4996089;28;20054;-84
2021/01/05 07:09:31;;;;;;;30.55;15.27;;;4.30;88.40;;;4.70;72.02;100526.50;4996805;28;20569;-84
2021/01/05 07:11:58;;;;;;;30.02;15.65;;;4.40;88.60;;;4.72;71.99;100526.31;4979946;28;20491;-83
2021/01/05 07:14:27;;;;;;;31.15;14.98;;;4.40;88.70;;;4.72;72.11;100539.78;4977329;28;20053;-83
2021/01/05 07:16:54;;;;;;;29.88;15.82;;;4.30;88.60;;;4.70;72.43;100539.09;4979146;28;20082;-83
2021/01/05 07:19:21;;;;;;;29.48;16.00;;;4.40;88.70;;;4.70;71.83;100528.31;4964306;28;20141;-84
2021/01/05 07:21:48;;;;;;;31.98;16.70;;;4.40;88.70;;;4.72;72.43;100533.56;4997869;28;20117;-83
2021/01/05 07:24:15;;;;;;;30.10;15.55;;;4.40;88.90;;;4.73;72.27;100532.59;4997551;28;20081;-83
2021/01/05 07:26:48;;;;;;;30.63;15.98;;;4.50;88.70;;;4.65;72.75;100534.16;4983606;28;20104;-83
2021/01/05 07:29:16;;;;;;;32.50;16.80;;;4.50;88.90;;;4.70;72.68;100536.41;4978935;28;20101;-84
2021/01/05 07:31:43;;;;;;;32.53;16.95;;;4.50;88.90;;;4.69;72.74;100537.41;4993938;28;20065;-84
2021/01/05 07:34:11;;;;;;;29.95;15.77;;;4.70;88.90;;;4.70;72.53;100539.97;4997116;28;20073;-83
2021/01/05 07:36:42;;;;;;;31.45;17.23;;;4.50;88.60;;;4.76;72.67;100537.66;4981346;28;20086;-83
2021/01/05 07:39:18;;;;;;;29.80;16.38;;;4.60;88.60;;;4.70;72.92;100545.34;4979679;28;20084;-83
2021/01/05 07:41:46;;;;;;;30.90;16.25;;;4.60;88.60;;;4.74;72.61;100540.53;4963199;28;20074;-82
2021/01/05 07:44:12;;;;;;;31.42;16.00;;;4.60;88.60;;;4.73;72.55;100536.13;4977072;28;20134;-82
2021/01/05 07:46:39;;;;;;;32.75;16.75;;;4.60;88.60;;;4.75;72.48;100552.16;4989959;28;20521;-83
2021/01/05 07:49:06;;;;;;;32.58;16.52;;;4.60;88.40;;;4.82;72.42;100547.88;4978269;28;20106;-82
2021/01/05 07:51:33;;;;;;;32.90;16.65;;;4.60;88.20;;;4.84;72.12;100545.88;4995271;28;20066;-81
2021/01/05 07:54:00;;;;;;;32.47;16.33;;;4.60;88.00;;;4.84;71.79;100559.38;4997061;28;20049;-81
2021/01/05 07:56:26;;;;;;;34.72;16.98;;;4.70;88.00;;;4.84;71.92;100554.81;4994904;28;20038;-81
2021/01/05 07:58:54;;;;;;;33.15;16.65;;;4.60;88.20;;;4.84;71.97;100549.44;4994379;28;20081;-80
2021/01/05 08:01:28;;;;;;;34.53;16.98;;;4.60;88.10;;;4.85;71.62;100553.81;4992329;28;20050;-81
2021/01/05 08:03:55;;;;;;;34.05;16.63;;;4.50;88.10;;;4.87;71.91;100561.75;4992195;28;20510;-81
2021/01/05 08:06:22;;;;;;;31.17;16.33;;;4.60;88.00;;;4.86;71.53;100560.06;4992486;28;20046;-84
2021/01/05 08:08:48;;;;;;;30.65;16.17;;;4.50;88.20;;;4.86;71.63;100557.38;5000243;28;20690;-84
2021/01/05 08:11:15;;;;;;;33.80;17.33;;;4.50;88.20;;;4.86;71.89;100560.06;5000537;28;20403;-83
2021/01/05 08:13:42;;;;;;;34.78;17.02;;;4.50;88.20;;;4.87;71.91;100564.44;4977651;28;20066;-83
2021/01/05 08:16:13;;;;;;;34.35;17.27;;;4.50;88.30;;;4.84;71.48;100573.69;4995851;28;20050;-83
2021/01/05 08:18:40;;;;;;;34.77;16.90;;;4.70;88.00;;;4.84;71.93;100564.75;4997959;28;20137;-83
2021/01/05 08:21:07;;;;;;;31.33;16.33;;;4.50;88.40;;;4.80;72.16;100566.91;4996946;28;20545;-84
2021/01/05 08:23:34;;;;;;;32.95;16.15;;;4.50;88.20;;;4.83;72.04;100563.06;4997723;28;20108;-84
2021/01/05 08:26:01;;;;;;;32.67;16.52;;;4.50;88.10;;;4.83;72.06;100571.97;4978178;28;20068;-83
2021/01/05 08:28:27;;;;;;;30.33;15.68;;;4.50;88.10;;;4.82;71.96;100575.69;4996892;28;20054;-83
2021/01/05 08:30:54;;;;;;;30.88;15.82;;;4.50;88.10;;;4.82;71.82;100569.44;4994522;28;20502;-83
2021/01/05 08:33:23;;;;;;;30.45;15.65;;;4.60;88.10;;;4.83;72.21;100565.75;4996466;28;20442;-83
2021/01/05 08:35:50;;;;;;;32.20;15.50;;;4.60;87.90;;;4.85;72.11;100563.75;4992086;28;20049;-83
2021/01/05 08:38:17;;;;;;;31.90;16.75;;;4.60;87.90;;;4.85;71.75;100558.34;4996721;28;20057;-83
2021/01/05 08:40:43;;;;;;;31.52;15.82;;;4.60;87.80;;;4.87;71.92;100561.75;4994375;28;20077;-84
2021/01/05 08:43:10;;;;;;;32.55;16.15;;;4.60;88.10;;;4.87;71.89;100559.06;4995387;28;20529;-82
2021/01/05 08:45:41;;;;;;;36.40;17.17;;;4.60;88.20;;;4.81;72.20;100563.19;4994075;28;20097;-81
2021/01/05 08:48:08;;;;;;;35.10;17.40;;;4.60;88.20;;;4.83;71.90;100563.06;4978941;28;20061;-82
2021/01/05 08:50:36;;;;;;;35.03;17.10;;;4.60;88.20;;;4.85;72.28;100564.59;4995414;28;20137;-82
2021/01/05 08:53:06;;;;;;;37.05;18.98;;;4.60;88.20;;;4.88;71.74;100566.16;4995776;28;20058;-82
2021/01/05 08:55:35;;;;;;;35.08;18.73;;;4.60;88.20;;;4.87;71.98;100561.75;4990487;28;20043;-82
2021/01/05 08:58:02;;;;;;;36.22;18.13;;;4.60;88.20;;;4.86;72.09;100571.69;4979255;28;20043;-82
2021/01/05 09:00:29;;;;;;;38.72;18.75;;;4.60;88.60;;;4.88;72.47;100569.69;4987903;28;20121;-82
2021/01/05 09:02:56;;;;;;;39.00;18.67;;;4.60;88.60;;;4.89;72.33;100567.84;4999347;28;20054;-83
2021/01/05 09:05:23;;;;;;;39.63;19.55;;;4.60;88.70;;;4.90;72.14;100572.25;4994544;28;20066;-83
2021/01/05 09:07:51;;;;;;;41.92;20.35;;;4.60;88.60;;;4.86;72.26;100571.69;4994260;28;20046;-83
2021/01/05 09:10:22;;;;;;;40.42;19.15;;;4.60;88.60;;;4.83;72.31;100577.38;4999080;28;20506;-83
2021/01/05 09:12:48;;;;;;;40.17;19.90;;;4.70;89.00;;;4.86;72.37;100570.84;4999198;28;20038;-85
2021/01/05 09:15:18;;;;;;;43.80;21.52;;;4.60;88.80;;;4.86;72.73;100576.25;5012712;28;20046;-83
2021/01/05 09:17:46;;;;;;;40.22;20.75;;;4.60;88.80;;;4.86;72.54;100570.84;4998960;28;20046;-85
2021/01/05 09:20:17;;;;;;;42.08;20.15;;;4.60;89.10;;;4.88;72.42;100579.66;4999177;28;20038;-85
2021/01/05 09:22:44;;;;;;;;;;;4.60;89.10;;;4.89;72.85;100575.94;4999026;28;20072;-85
2021/01/05 09:25:13;;;;;;;53.80;22.75;;;4.70;89.30;;;4.88;72.72;100575.09;4995932;28;20140;-82
2021/01/05 09:27:40;;;;;;;42.78;20.67;;;4.60;89.00;;;4.87;72.43;100583.31;5001053;28;20517;-82
2021/01/05 09:30:10;;;;;;;41.05;19.48;;;4.50;88.70;;;4.84;72.93;100580.94;4996905;28;20561;-82
2021/01/05 09:32:36;;;;;;;44.70;20.17;;;4.50;89.20;;;4.85;72.67;100583.47;5008583;28;20605;-82
2021/01/05 09:35:06;;;;;;;39.88;19.80;;;4.60;89.00;;;4.85;72.82;100586.16;5000389;28;20234;-82
2021/01/05 09:37:33;;;;;;;42.03;20.58;;;4.60;88.80;;;4.84;72.66;100578.25;5005403;28;20038;-82
2021/01/05 09:40:00;;;;;;;40.08;19.50;;;4.60;89.20;;;4.82;72.56;100581.09;5005234;28;20049;-82
2021/01/05 09:42:30;;;;;;;38.72;19.08;;;4.50;88.80;;;4.82;72.48;100580.25;4995185;28;20130;-82
2021/01/05 09:44:57;;;;;;;37.40;19.20;;;4.50;89.10;;;4.81;72.99;100578.53;4979986;28;20042;-82
2021/01/05 09:47:24;;;;;;;37.90;18.35;;;4.40;89.20;;;4.84;72.66;100567.47;4992965;28;20649;-82
2021/01/05 09:49:51;;;;;;;37.08;18.05;;;4.50;89.10;;;4.85;72.90;100580.78;4997531;28;20177;-82
2021/01/05 09:52:19;;;;;;;38.03;18.98;;;4.50;89.20;;;4.84;72.53;100576.38;4997669;28;20042;-82
2021/01/05 09:54:48;;;;;;;38.05;18.92;;;4.60;89.30;;;4.85;72.49;100572.69;4997514;28;20089;-82
2021/01/05 09:57:17;;;;;;;40.00;20.33;;;4.60;88.80;;;4.86;72.89;100570.84;4991266;28;20054;-82
2021/01/05 09:59:45;;;;;;;40.47;19.42;;;4.60;89.00;;;4.84;72.57;100572.84;4972543;28;20142;-82
2021/01/05 10:02:14;;;;;;;38.92;19.25;;;4.50;89.20;;;4.85;72.62;100579.94;4979597;28;20099;-85
2021/01/05 10:04:41;;;;;;;43.47;20.15;;;4.60;89.00;;;4.88;72.53;100574.25;4990527;28;20080;-82
2021/01/05 10:07:08;;;;;;;40.95;20.73;;;4.60;88.60;;;4.89;72.45;100578.63;4996520;28;20112;-82
2021/01/05 10:09:36;;;;;;;39.30;19.08;;;4.50;89.20;;;4.84;72.59;100571.00;4996214;28;20133;-83
2021/01/05 10:12:04;;;;;;;36.80;18.98;;;4.50;89.10;;;4.79;72.58;100575.13;4994934;28;20038;-83
2021/01/05 10:14:31;;;;;;;41.63;20.13;;;4.50;89.30;;;4.76;73.03;100572.72;4997627;28;20053;-82
2021/01/05 10:16:59;;;;;;;41.15;19.67;;;4.50;89.30;;;4.82;72.54;100574.84;4981136;28;20129;-82
2021/01/05 10:19:27;;;;;;;41.00;19.02;;;4.50;89.30;;;4.83;72.73;100569.28;4977765;28;20051;-82
2021/01/05 10:21:54;;;;;;;39.97;19.35;;;4.50;89.20;;;4.85;72.80;100574.53;4994046;28;20047;-83
2021/01/05 10:24:21;;;;;;;42.58;20.23;;;4.50;89.30;;;4.85;72.49;100566.44;4997145;28;20583;-82
2021/01/05 10:26:53;;;;;;;37.47;18.77;;;4.50;89.10;;;4.78;72.56;100568.03;4977731;28;20046;-83
2021/01/05 10:29:21;;;;;;;36.83;17.90;;;4.50;89.40;;;4.80;72.83;100568.75;4997048;28;20058;-82
2021/01/05 10:31:48;;;;;;;40.50;19.15;;;4.50;89.10;;;4.82;72.81;100574.84;4986051;28;20046;-82
2021/01/05 10:34:20;;;;;;;36.72;18.20;;;4.50;89.50;;;4.80;72.72;100571.44;4997232;28;20076;-82
2021/01/05 10:36:51;;;;;;;41.92;19.13;;;4.60;89.00;;;4.81;72.70;100573.13;4996029;28;20042;-81
2021/01/05 10:39:18;;;;;;;37.30;18.75;;;4.70;89.10;;;4.85;72.59;100569.13;4996697;28;20070;-81
2021/01/05 10:41:46;;;;;;;38.00;18.10;;;4.50;89.40;;;4.82;72.76;100575.69;4993396;28;20452;-81
2021/01/05 10:44:15;;;;;;;42.05;19.63;;;4.60;89.30;;;4.86;72.79;100577.09;4996929;28;20473;-82